Time;durP1;ratioP1;P1;durP2;ratioP2;P2;SDS_P1;SDS_P2;PMS_P1;PMS_P2;Temp;Humidity;BMP_temperature;BMP_pressure;BME280_temperature;BME280_humidity;BME280_pressure;Samples;Min_cycle;Max_cycle;Signal;HPM_P1;HPM_P2
2024/01/14 00:00:54;;;;;;;17.73;11.00;;;;;;;-0.66;100.00;100184.31;5035328;28;20223;-63
2024/01/14 00:03:19;;;;;;;21.00;11.37;;;;;;;-0.64;100.00;100179.25;5050647;28;20229;-63
2024/01/14 00:05:44;;;;;;;17.67;11.47;;;;;;;-0.74;100.00;100177.66;5033140;28;20195;-63
2024/01/14 00:08:09;;;;;;;17.90;10.43;;;;;;;-0.82;100.00;100177.66;5036101;28;20185;-62
2024/01/14 00:10:35;;;;;;;17.03;10.50;;;;;;;-0.87;100.00;100174.34;5034917;28;20225;-63
2024/01/14 00:13:00;;;;;;;22.60;11.43;;;;;;;-0.72;100.00;100166.69;5055222;28;20225;-62
2024/01/14 00:15:25;;;;;;;20.10;11.33;;;;;;;-0.65;100.00;100173.34;5026396;28;20274;-63
2024/01/14 00:17:50;;;;;;;18.90;11.27;;;;;;;-0.69;100.00;100168.34;5032975;28;20213;-63
2024/01/14 00:20:16;;;;;;;16.20;10.80;;;;;;;-0.69;100.00;100179.28;5026890;28;20197;-63
2024/01/14 00:22:41;;;;;;;14.40;9.80;;;;;;;-0.78;100.00;100179.34;5060342;28;20240;-65
2024/01/14 00:25:07;;;;;;;17.23;11.40;;;;;;;-0.80;100.00;100173.47;5065518;28;20235;-63
2024/01/14 00:27:32;;;;;;;18.50;11.30;;;;;;;-0.83;100.00;100169.28;5034810;28;20186;-64
2024/01/14 00:29:59;;;;;;;17.00;10.13;;;;;;;-0.76;100.00;100157.41;5031599;28;20224;-63
2024/01/14 00:32:24;;;;;;;17.67;11.00;;;;;;;-0.89;100.00;100155.84;5017339;28;20277;-63
2024/01/14 00:34:49;;;;;;;19.23;10.60;;;;;;;-0.86;100.00;100145.72;5032419;28;20195;-63
2024/01/14 00:37:14;;;;;;;14.87;9.57;;;;;;;-0.82;100.00;100143.16;5032908;28;20213;-64
2024/01/14 00:39:40;;;;;;;16.57;10.53;;;;;;;-0.95;100.00;100139.03;5032549;28;20194;-63
2024/01/14 00:42:05;;;;;;;18.20;10.13;;;;;;;-1.11;100.00;100152.63;5054176;28;20608;-63
2024/01/14 00:44:31;;;;;;;18.73;10.63;;;;;;;-1.13;100.00;100145.03;5032327;28;20732;-63
2024/01/14 00:46:56;;;;;;;19.40;10.90;;;;;;;-0.95;100.00;100140.75;5063960;28;20233;-63
2024/01/14 00:49:21;;;;;;;16.63;9.70;;;;;;;-0.89;100.00;100136.47;5030250;28;20561;-63
2024/01/14 00:51:47;;;;;;;19.70;11.17;;;;;;;-1.01;100.00;100134.03;5039239;28;20282;-62
2024/01/14 00:54:12;;;;;;;23.03;12.03;;;;;;;-1.05;100.00;100133.22;5036675;28;20193;-62
2024/01/14 00:56:38;;;;;;;15.57;10.27;;;;;;;-0.98;100.00;100129.81;5032210;28;20210;-63
2024/01/14 00:59:04;;;;;;;19.13;11.07;;;;;;;-0.89;100.00;100130.59;5039996;28;20257;-63
2024/01/14 01:01:30;;;;;;;21.30;12.00;;;;;;;-0.77;100.00;100122.94;5045194;28;20225;-62
2024/01/14 01:03:55;;;;;;;21.60;12.23;;;;;;;-0.93;100.00;100129.78;5043814;28;20538;-63
2024/01/14 01:06:20;;;;;;;18.73;11.60;;;;;;;-1.02;100.00;100117.19;5034933;28;20655;-63
2024/01/14 01:08:47;;;;;;;18.67;11.37;;;;;;;-1.04;100.00;100123.94;5031684;28;20186;-62
2024/01/14 01:11:15;;;;;;;19.70;11.60;;;;;;;-1.03;100.00;100133.19;5040689;28;20316;-63
2024/01/14 01:13:40;;;;;;;19.00;10.80;;;;;;;-0.94;100.00;100122.19;5036246;28;20198;-63
2024/01/14 01:16:06;;;;;;;19.03;11.40;;;;;;;-0.86;100.00;100128.88;5032163;28;20185;-63
2024/01/14 01:18:31;;;;;;;17.37;10.53;;;;;;;-0.78;100.00;100128.84;5030697;28;20708;-63
2024/01/14 01:20:57;;;;;;;17.17;11.30;;;;;;;-0.66;100.00;100118.63;5035978;28;20218;-63
2024/01/14 01:23:22;;;;;;;18.90;11.03;;;;;;;-0.77;100.00;100122.94;5048575;28;20274;-63
2024/01/14 01:25:48;;;;;;;17.03;11.27;;;;;;;-0.72;100.00;100115.28;5031853;28;20182;-63
2024/01/14 01:28:13;;;;;;;18.90;11.37;;;;;;;-0.94;100.00;100114.63;5030064;28;20175;-63
2024/01/14 01:30:38;;;;;;;18.53;10.97;;;;;;;-1.09;100.00;100121.47;5031323;28;20220;-62
2024/01/14 01:33:03;;;;;;;19.67;9.93;;;;;;;-1.13;100.00;100122.31;5052898;28;20214;-63
2024/01/14 01:35:29;;;;;;;16.17;10.63;;;;;;;-1.03;100.00;100118.91;5030433;28;20182;-63
2024/01/14 01:37:54;;;;;;;18.23;11.23;;;;;;;-1.13;100.00;100112.22;5031418;28;20186;-63
2024/01/14 01:40:19;;;;;;;18.77;11.67;;;;;;;-1.07;100.00;100111.34;5025947;28;20186;-62
2024/01/14 01:42:46;;;;;;;17.20;10.03;;;;;;;-0.96;100.00;100104.53;5057645;28;20269;-63
2024/01/14 01:45:11;;;;;;;20.50;11.47;;;;;;;-0.92;100.00;100101.13;5031380;28;20229;-62
2024/01/14 01:47:37;;;;;;;15.73;10.10;;;;;;;-0.89;100.00;100108.69;5031356;28;20191;-62
2024/01/14 01:50:03;;;;;;;18.27;11.27;;;;;;;-0.86;100.00;100102.78;5024250;28;20195;-63
2024/01/14 01:52:28;;;;;;;15.93;10.07;;;;;;;-0.98;100.00;100096.13;5056012;28;20617;-63
2024/01/14 01:54:55;;;;;;;15.83;9.03;;;;;;;-0.93;100.00;100086.00;5031128;28;20185;-63
2024/01/14 01:57:22;;;;;;;19.03;11.13;;;;;;;-0.75;100.00;100078.28;5029842;28;20599;-63
2024/01/14 01:59:48;;;;;;;15.37;9.80;;;;;;;-0.81;100.00;100085.91;5031521;28;20254;-63
2024/01/14 02:02:13;;;;;;;15.87;9.70;;;;;;;-0.77;100.00;100095.16;5051970;28;20393;-63
2024/01/14 02:04:39;;;;;;;15.63;10.20;;;;;;;-0.71;100.00;100077.41;5036227;28;20174;-63
2024/01/14 02:07:05;;;;;;;18.07;10.63;;;;;;;-0.74;100.00;100069.03;5030773;28;20190;-63
2024/01/14 02:09:32;;;;;;;17.70;11.10;;;;;;;-0.97;100.00;100059.94;5031335;28;20179;-62
2024/01/14 02:11:59;;;;;;;17.90;10.20;;;;;;;-0.92;100.00;100065.78;5051239;28;20680;-63
2024/01/14 02:14:25;;;;;;;16.37;10.40;;;;;;;-0.93;100.00;100059.06;5032181;28;20186;-62
2024/01/14 02:16:52;;;;;;;17.87;9.87;;;;;;;-0.79;100.00;100050.53;5030886;28;20193;-62
2024/01/14 02:19:17;;;;;;;17.20;9.80;;;;;;;-0.84;100.00;100061.50;5030410;28;20200;-63
2024/01/14 02:21:46;;;;;;;16.43;10.37;;;;;;;-1.02;100.00;100079.31;5047063;28;20767;-62
2024/01/14 02:24:30;;;;;;;16.97;10.37;;;;;;;-1.01;100.00;100070.91;5035677;28;20260;-63
2024/01/14 02:26:56;;;;;;;19.50;10.97;;;;;;;-0.90;100.00;100064.09;5030953;28;20213;-63
2024/01/14 02:29:22;;;;;;;16.30;10.07;;;;;;;-1.01;100.00;100051.53;5030908;28;20626;-63
2024/01/14 02:31:47;;;;;;;15.43;9.77;;;;;;;-0.87;100.00;100043.00;5047881;28;20213;-63
2024/01/14 02:34:13;;;;;;;17.43;10.27;;;;;;;-1.03;100.00;100028.00;5034873;28;20190;-62
2024/01/14 02:36:39;;;;;;;16.77;9.93;;;;;;;-1.03;100.00;100029.66;5030821;28;20183;-62
2024/01/14 02:39:05;;;;;;;15.70;10.23;;;;;;;-1.13;100.00;100036.47;5030582;28;20191;-63
2024/01/14 02:41:31;;;;;;;18.07;11.03;;;;;;;-0.95;100.00;100039.72;5043504;28;20232;-62
2024/01/14 02:43:56;;;;;;;18.60;8.97;;;;;;;-1.06;100.00;100054.97;5039074;28;20201;-62
2024/01/14 02:46:21;;;;;;;15.27;9.07;;;;;;;-1.06;100.00;100045.69;5030506;28;20779;-63
2024/01/14 02:48:46;;;;;;;16.83;10.37;;;;;;;-0.89;100.00;100048.09;5032720;28;20188;-63
2024/01/14 02:51:12;;;;;;;15.20;8.93;;;;;;;-0.84;100.00;100048.06;5027002;28;20225;-62
2024/01/14 02:53:37;;;;;;;15.80;10.20;;;;;;;-0.91;100.00;100041.38;5043605;28;20202;-63
2024/01/14 02:56:04;;;;;;;16.43;9.87;;;;;;;-0.82;100.00;100037.09;5030631;28;20178;-63
2024/01/14 02:58:29;;;;;;;17.53;10.03;;;;;;;-0.87;100.00;100043.00;5030965;28;20217;-63
2024/01/14 03:00:54;;;;;;;14.43;9.43;;;;;;;-0.84;100.00;100036.25;5034061;28;20237;-63
2024/01/14 03:03:21;;;;;;;14.50;9.23;;;;;;;-0.86;100.00;100032.88;5048074;28;20186;-63
2024/01/14 03:05:46;;;;;;;14.50;9.57;;;;;;;-0.82;100.00;100036.22;5030482;28;20174;-63
2024/01/14 03:08:12;;;;;;;18.83;10.13;;;;;;;-0.76;100.00;100035.34;5030640;28;20184;-63
2024/01/14 03:10:37;;;;;;;15.70;10.23;;;;;;;-0.69;100.00;100042.03;5029530;28;20215;-63
2024/01/14 03:13:02;;;;;;;16.83;9.87;;;;;;;-0.79;100.00;100035.38;5054383;28;20612;-63
2024/01/14 03:15:27;;;;;;;20.60;10.77;;;;;;;-0.75;100.00;100030.28;5034156;28;20202;-63
2024/01/14 03:17:53;;;;;;;14.90;9.97;;;;;;;-0.84;100.00;100032.91;5034522;28;20206;-63
2024/01/14 03:20:18;;;;;;;18.67;10.17;;;;;;;-0.79;100.00;100035.38;5027896;28;20174;-63
2024/01/14 03:22:43;;;;;;;15.50;9.47;;;;;;;-0.83;100.00;100029.53;5060986;28;20182;-63
2024/01/14 03:25:09;;;;;;;20.00;10.60;;;;;;;-0.90;100.00;100018.63;5034013;28;20194;-63
2024/01/14 03:27:34;;;;;;;18.90;10.67;;;;;;;-0.80;100.00;100016.03;5032863;28;20719;-62
2024/01/14 03:29:59;;;;;;;15.17;9.50;;;;;;;-0.69;100.00;100002.44;5033921;28;20665;-62
2024/01/14 03:32:25;;;;;;;16.87;9.80;;;;;;;-0.82;100.00;99999.19;5055388;28;20230;-63
2024/01/14 03:34:50;;;;;;;16.40;10.27;;;;;;;-0.78;100.00;100000.00;5033605;28;20175;-62
2024/01/14 03:37:15;;;;;;;17.27;10.40;;;;;;;-0.73;100.00;99998.28;5033808;28;20182;-63
2024/01/14 03:39:41;;;;;;;18.87;10.73;;;;;;;-0.82;100.00;99993.28;5032541;28;20182;-63
2024/01/14 03:42:06;;;;;;;18.77;10.63;;;;;;;-1.02;100.00;100021.25;5055573;28;20225;-63
2024/01/14 03:44:32;;;;;;;16.63;9.50;;;;;;;-0.91;100.00;100004.31;5033074;28;20228;-63
2024/01/14 03:46:57;;;;;;;15.47;9.77;;;;;;;-0.80;100.00;100001.69;5024078;28;20340;-63
2024/01/14 03:49:22;;;;;;;14.87;9.70;;;;;;;-0.88;100.00;99988.31;5038982;28;20193;-62
2024/01/14 03:51:47;;;;;;;15.43;9.40;;;;;;;-0.74;100.00;99980.63;5040636;28;20240;-62
2024/01/14 03:54:13;;;;;;;19.53;10.17;;;;;;;-0.88;100.00;99975.66;5037444;28;20197;-63
2024/01/14 03:56:38;;;;;;;17.17;9.47;;;;;;;-1.01;100.00;99975.78;5033523;28;20189;-62
2024/01/14 03:59:03;;;;;;;16.80;9.00;;;;;;;-0.89;100.00;99974.84;5033169;28;20194;-63
2024/01/14 04:01:28;;;;;;;16.10;9.27;;;;;;;-0.73;100.00;99980.59;5045653;28;20595;-63
2024/01/14 04:03:54;;;;;;;18.77;10.47;;;;;;;-0.97;100.00;99986.69;5042227;28;20186;-63
2024/01/14 04:06:23;;;;;;;17.50;10.03;;;;;;;-0.86;100.00;99979.84;5031941;28;20211;-62
2024/01/14 04:08:48;;;;;;;16.93;9.77;;;;;;;-0.81;100.00;99979.81;5032882;28;20190;-63
2024/01/14 04:11:14;;;;;;;16.80;10.07;;;;;;;-0.67;100.00;99979.66;5042285;28;20302;-62
2024/01/14 04:13:39;;;;;;;18.83;9.93;;;;;;;-0.66;100.00;99976.31;5045392;28;20206;-63
2024/01/14 04:16:04;;;;;;;13.63;9.27;;;;;;;-0.53;100.00;99974.50;5033212;28;20206;-63
2024/01/14 04:18:30;;;;;;;15.20;9.33;;;;;;;-0.56;100.00;99969.47;5032737;28;20179;-63
2024/01/14 04:20:56;;;;;;;17.97;10.47;;;;;;;-0.60;100.00;99967.84;5036583;28;20292;-63
2024/01/14 04:23:21;;;;;;;16.90;10.00;;;;;;;-0.70;100.00;99967.91;5050033;28;20240;-64
2024/01/14 04:25:46;;;;;;;17.30;10.33;;;;;;;-0.88;100.00;99968.94;5032680;28;20178;-63
2024/01/14 04:28:11;;;;;;;17.73;10.63;;;;;;;-0.87;100.00;99969.78;5032963;28;20175;-63
2024/01/14 04:30:37;;;;;;;17.40;10.47;;;;;;;-0.83;100.00;99971.44;5011472;28;20297;-63
2024/01/14 04:33:02;;;;;;;14.27;9.73;;;;;;;-0.92;100.00;99967.28;5054541;28;20191;-63
2024/01/14 04:35:27;;;;;;;16.33;10.13;;;;;;;-0.95;100.00;99963.97;5031423;28;20179;-63
2024/01/14 04:37:53;;;;;;;15.30;9.70;;;;;;;-1.23;100.00;99954.13;5032318;28;20261;-63
2024/01/14 04:40:18;;;;;;;17.20;10.17;;;;;;;-1.22;100.00;99940.66;5026923;28;20197;-63
2024/01/14 04:42:43;;;;;;;17.87;11.00;;;;;;;-1.57;100.00;99929.16;5059493;28;20198;-63
2024/01/14 04:45:09;;;;;;;19.47;10.10;;;;;;;-1.58;100.00;99935.03;5032556;28;20233;-63
2024/01/14 04:47:34;;;;;;;17.90;10.03;;;;;;;-1.76;100.00;99939.38;5031106;28;20182;-63
2024/01/14 04:49:59;;;;;;;15.33;9.13;;;;;;;-1.92;100.00;99943.69;5029199;28;20182;-62
2024/01/14 04:52:24;;;;;;;17.50;10.03;;;;;;;-1.79;100.00;99946.94;5031716;28;20222;-63
2024/01/14 04:54:50;;;;;;;18.93;9.80;;;;;;;-1.82;100.00;99952.03;5064337;28;20174;-63
2024/01/14 04:57:15;;;;;;;17.33;10.03;;;;;;;-1.80;100.00;99957.88;5032339;28;20529;-63
2024/01/14 04:59:40;;;;;;;17.67;11.07;;;;;;;-1.77;100.00;99962.06;5032318;28;20174;-63
2024/01/14 05:02:07;;;;;;;16.80;10.50;;;;;;;-1.87;100.00;99962.13;5053567;28;20234;-62
2024/01/14 05:04:32;;;;;;;19.67;11.10;;;;;;;-1.70;100.00;99957.00;5064102;28;20186;-63
2024/01/14 05:06:57;;;;;;;16.47;10.17;;;;;;;-1.63;100.00;99958.59;5031693;28;20530;-63
2024/01/14 05:09:23;;;;;;;16.53;10.80;;;;;;;-1.72;100.00;99955.31;5032252;28;20182;-63
2024/01/14 05:11:48;;;;;;;19.60;10.97;;;;;;;-1.79;100.00;99954.50;5049410;28;20232;-63
2024/01/14 05:14:13;;;;;;;18.53;11.03;;;;;;;-1.81;100.00;99951.16;5036014;28;20186;-62
2024/01/14 05:16:38;;;;;;;21.07;10.73;;;;;;;-1.81;100.00;99957.06;5031953;28;20179;-63
2024/01/14 05:19:04;;;;;;;16.10;10.20;;;;;;;-1.78;100.00;99961.22;5031732;28;20182;-63
2024/01/14 05:21:29;;;;;;;18.53;10.73;;;;;;;-1.79;100.00;99952.84;5044264;28;20231;-62
2024/01/14 05:23:54;;;;;;;15.53;9.00;;;;;;;-1.79;100.00;99952.84;5040777;28;20178;-63
2024/01/14 05:26:19;;;;;;;18.27;10.70;;;;;;;-1.76;100.00;99952.00;5031954;28;20174;-63
2024/01/14 05:28:45;;;;;;;16.30;10.07;;;;;;;-1.94;100.00;99955.44;5031532;28;20846;-63
2024/01/14 05:31:10;;;;;;;15.43;9.87;;;;;;;-1.79;100.00;99949.47;5039316;28;20354;-63
2024/01/14 05:33:35;;;;;;;20.37;11.10;;;;;;;-1.81;100.00;99956.19;5044861;28;20201;-62
2024/01/14 05:36:01;;;;;;;19.53;9.73;;;;;;;-1.87;100.00;99947.00;5030725;28;20221;-64
2024/01/14 05:38:26;;;;;;;20.17;10.43;;;;;;;-1.78;100.00;99958.72;5031830;28;20201;-63
2024/01/14 05:40:51;;;;;;;16.67;9.53;;;;;;;-1.70;100.00;99954.47;5029519;28;20713;-64
2024/01/14 05:43:17;;;;;;;19.40;10.50;;;;;;;-1.77;100.00;99945.25;5049820;28;20194;-63
2024/01/14 05:45:42;;;;;;;19.83;9.87;;;;;;;-1.59;100.00;99951.84;5031262;28;20242;-65
2024/01/14 05:48:08;;;;;;;16.03;9.40;;;;;;;-1.55;100.00;99945.97;5031360;28;20295;-63
2024/01/14 05:50:33;;;;;;;17.77;10.33;;;;;;;-1.49;100.00;99945.06;5021610;28;20332;-63
2024/01/14 05:52:59;;;;;;;18.20;9.67;;;;;;;-1.51;100.00;99941.72;5053701;28;20225;-63
2024/01/14 05:55:25;;;;;;;21.10;9.87;;;;;;;-1.56;100.00;99941.75;5031374;28;20635;-63
2024/01/14 05:57:50;;;;;;;14.40;8.90;;;;;;;-1.75;100.00;99935.16;5031232;28;20174;-63
2024/01/14 06:00:17;;;;;;;17.17;9.60;;;;;;;-1.83;100.00;99925.94;5024064;28;20186;-63
2024/01/14 06:02:43;;;;;;;15.87;9.50;;;;;;;-1.95;100.00;99916.81;5058712;28;20182;-63
2024/01/14 06:05:08;;;;;;;17.47;9.90;;;;;;;-2.06;100.00;99905.94;5031262;28;20282;-63
2024/01/14 06:07:33;;;;;;;18.23;8.97;;;;;;;-2.11;100.00;99907.63;5031263;28;20189;-63
2024/01/14 06:09:59;;;;;;;18.43;9.13;;;;;;;-2.14;100.00;99907.66;5063407;28;20177;-63
2024/01/14 06:12:24;;;;;;;14.27;9.27;;;;;;;-2.12;100.00;99908.50;5052670;28;20244;-63
2024/01/14 06:14:49;;;;;;;19.23;10.30;;;;;;;-2.15;100.00;99911.03;5031039;28;20185;-63
2024/01/14 06:17:15;;;;;;;16.03;9.57;;;;;;;-2.05;100.00;99905.06;5029766;28;20189;-63
2024/01/14 06:19:41;;;;;;;17.67;10.27;;;;;;;-2.06;100.00;99911.00;5031042;28;20217;-63
2024/01/14 06:22:06;;;;;;;16.10;9.13;;;;;;;-2.19;100.00;99896.78;5052271;28;20304;-63
2024/01/14 06:24:32;;;;;;;16.17;9.73;;;;;;;-2.22;100.00;99892.59;5031160;28;20182;-63
2024/01/14 06:26:57;;;;;;;15.03;10.37;;;;;;;-2.20;100.00;99897.63;5030798;28;20269;-63
2024/01/14 06:29:22;;;;;;;20.30;10.40;;;;;;;-2.24;100.00;99903.53;5029881;28;20648;-63
2024/01/14 06:31:48;;;;;;;18.07;10.27;;;;;;;-2.20;100.00;99902.66;5048669;28;20290;-63
2024/01/14 06:34:13;;;;;;;20.30;10.07;;;;;;;-2.15;100.00;99893.38;5034752;28;20281;-63
2024/01/14 06:36:38;;;;;;;15.97;9.20;;;;;;;-2.25;100.00;99906.88;5030803;28;20596;-63
2024/01/14 06:39:05;;;;;;;18.67;10.80;;;;;;;-2.27;100.00;99922.84;5033070;28;20178;-63
2024/01/14 06:41:31;;;;;;;19.53;10.17;;;;;;;-2.08;100.00;99911.81;5044485;28;20231;-63
2024/01/14 06:43:56;;;;;;;20.33;10.40;;;;;;;-1.93;100.00;99914.25;5039213;28;20186;-64
2024/01/14 06:46:21;;;;;;;16.43;9.80;;;;;;;-2.05;100.00;99904.25;5030919;28;20654;-64
2024/01/14 06:48:46;;;;;;;20.77;11.67;;;;;;;-2.07;100.00;99900.88;5034287;28;20174;-63
2024/01/14 06:51:12;;;;;;;20.20;10.40;;;;;;;-2.03;100.00;99898.34;5029670;28;20307;-64
2024/01/14 06:53:37;;;;;;;19.40;10.97;;;;;;;-2.04;100.00;99889.13;5047887;28;20209;-64
2024/01/14 06:56:03;;;;;;;21.27;11.87;;;;;;;-2.02;100.00;99892.47;5034184;28;20280;-64
2024/01/14 06:58:29;;;;;;;19.03;10.40;;;;;;;-2.11;100.00;99888.31;5034607;28;20206;-64
2024/01/14 07:00:54;;;;;;;20.53;11.87;;;;;;;-2.16;100.00;99884.16;5038017;28;20246;-63
2024/01/14 07:03:19;;;;;;;19.87;11.13;;;;;;;-2.17;100.00;99882.47;5052169;28;20182;-64
2024/01/14 07:05:45;;;;;;;19.30;10.93;;;;;;;-2.21;100.00;99894.25;5034097;28;20794;-63
2024/01/14 07:08:10;;;;;;;18.73;9.53;;;;;;;-2.03;100.00;99900.88;5034478;28;20190;-62
2024/01/14 07:10:35;;;;;;;20.20;12.03;;;;;;;-2.14;100.00;99885.81;5033116;28;20227;-66
2024/01/14 07:13:01;;;;;;;17.07;10.93;;;;;;;-2.09;100.00;99905.13;5056710;28;20198;-66
2024/01/14 07:15:26;;;;;;;19.07;11.23;;;;;;;-2.06;100.00;99895.88;5034322;28;20316;-65
2024/01/14 07:17:51;;;;;;;21.87;11.40;;;;;;;-1.97;100.00;99897.50;5034349;28;20181;-66
2024/01/14 07:20:17;;;;;;;22.90;11.23;;;;;;;-2.08;100.00;99895.03;5027596;28;20262;-65
2024/01/14 07:22:42;;;;;;;20.73;12.00;;;;;;;-2.01;100.00;99885.72;5061492;28;20516;-66
2024/01/14 07:25:08;;;;;;;20.77;10.77;;;;;;;-1.95;100.00;99884.03;5032843;28;20182;-65
2024/01/14 07:27:34;;;;;;;18.67;9.87;;;;;;;-1.80;100.00;99890.66;5034033;28;20223;-65
2024/01/14 07:29:59;;;;;;;21.40;11.13;;;;;;;-1.80;100.00;99887.28;5033746;28;20194;-65
2024/01/14 07:32:25;;;;;;;19.87;11.33;;;;;;;-1.72;100.00;99889.75;5038316;28;20321;-65
2024/01/14 07:34:50;;;;;;;19.90;11.30;;;;;;;-1.78;100.00;99888.09;5033481;28;20244;-66
2024/01/14 07:37:15;;;;;;;19.33;11.13;;;;;;;-1.89;100.00;99890.69;5065593;28;20198;-66
2024/01/14 07:39:40;;;;;;;18.60;11.03;;;;;;;-1.79;100.00;99881.38;5033548;28;20304;-66
2024/01/14 07:42:06;;;;;;;24.67;12.17;;;;;;;-1.92;100.00;99875.59;5055219;28;20380;-65
2024/01/14 07:44:31;;;;;;;20.37;10.40;;;;;;;-1.90;100.00;99868.03;5032269;28;20227;-66
2024/01/14 07:46:56;;;;;;;25.50;11.93;;;;;;;-1.91;100.00;99874.75;5033316;28;20222;-65
2024/01/14 07:49:22;;;;;;;19.10;11.33;;;;;;;-2.01;100.00;99873.97;5032354;28;20249;-65
2024/01/14 07:51:47;;;;;;;21.43;11.73;;;;;;;-1.93;100.00;99880.63;5044723;28;20226;-64
2024/01/14 07:54:12;;;;;;;21.47;11.40;;;;;;;-1.77;100.00;99882.22;5037512;28;20206;-65
2024/01/14 07:56:38;;;;;;;26.20;11.63;;;;;;;-1.67;100.00;99875.41;5033629;28;20205;-60
2024/01/14 07:59:03;;;;;;;19.83;11.50;;;;;;;-1.52;100.00;99874.47;5030601;28;20327;-63
2024/01/14 08:01:30;;;;;;;26.90;11.97;;;;;;;-1.66;100.00;99875.41;5045953;28;20228;-63
2024/01/14 08:03:55;;;;;;;20.93;12.03;;;;;;;-1.66;100.00;99874.56;5035008;28;20186;-63
2024/01/14 08:06:22;;;;;;;22.67;12.20;;;;;;;-1.66;100.00;99865.31;5032278;28;20186;-63
2024/01/14 08:08:47;;;;;;;21.60;10.93;;;;;;;-1.68;100.00;99871.22;5031826;28;20632;-63
2024/01/14 08:11:14;;;;;;;23.60;13.07;;;;;;;-1.58;100.00;99872.81;5040689;28;20231;-63
2024/01/14 08:13:39;;;;;;;22.10;12.50;;;;;;;-1.55;100.00;99870.28;5044057;28;20202;-64
2024/01/14 08:16:04;;;;;;;23.13;13.43;;;;;;;-1.41;100.00;99864.28;5031953;28;20197;-64
2024/01/14 08:18:29;;;;;;;26.50;12.60;;;;;;;-1.33;100.00;99863.34;5032043;28;20209;-63
2024/01/14 08:20:55;;;;;;;23.13;12.17;;;;;;;-1.44;100.00;99867.63;5036980;28;20228;-63
2024/01/14 08:23:20;;;;;;;24.43;13.03;;;;;;;-1.19;100.00;99858.16;5040511;28;20190;-63
2024/01/14 08:25:45;;;;;;;20.80;12.37;;;;;;;-1.07;100.00;99861.41;5033010;28;20264;-65
2024/01/14 08:28:11;;;;;;;23.03;12.67;;;;;;;-1.19;100.00;99852.25;5032840;28;20528;-64
2024/01/14 08:30:36;;;;;;;20.33;12.23;;;;;;;-1.15;100.00;99852.22;5008640;28;20240;-68
2024/01/14 08:33:02;;;;;;;22.07;12.33;;;;;;;-1.09;100.00;99848.81;5054988;28;20246;-68
2024/01/14 08:35:28;;;;;;;22.40;12.63;;;;;;;-1.14;100.00;99856.41;5033184;28;20546;-68
2024/01/14 08:37:53;;;;;;;25.53;13.83;;;;;;;-1.26;100.00;99863.28;5032732;28;20178;-63
2024/01/14 08:40:18;;;;;;;21.97;11.83;;;;;;;-1.46;100.00;99856.75;5026892;28;20184;-64
2024/01/14 08:42:48;;;;;;;24.20;11.93;;;;;;;-1.47;100.00;99857.59;5059477;28;20699;-67
2024/01/14 08:45:15;;;;;;;21.47;11.67;;;;;;;-1.32;100.00;99857.44;5032086;28;20234;-76
2024/01/14 08:47:40;;;;;;;21.23;11.27;;;;;;;-1.43;100.00;99861.75;5032377;28;20182;-64
2024/01/14 08:50:09;;;;;;;29.23;12.03;;;;;;;-1.27;100.00;99862.44;5028030;28;20177;-64
2024/01/14 08:52:35;;;;;;;18.97;10.73;;;;;;;-1.22;100.00;99849.78;5046062;28;20205;-64
2024/01/14 08:55:00;;;;;;;21.33;10.70;;;;;;;-1.14;100.00;99851.38;5030866;28;20174;-64
2024/01/14 08:57:25;;;;;;;20.97;11.57;;;;;;;-1.09;100.00;99850.47;5032206;28;20217;-64
2024/01/14 08:59:51;;;;;;;21.50;11.73;;;;;;;-1.05;100.00;99849.63;5032266;28;20185;-63
2024/01/14 09:02:16;;;;;;;19.87;10.03;;;;;;;-1.09;100.00;99853.84;5048889;28;20323;-65
2024/01/14 09:04:41;;;;;;;20.03;9.73;;;;;;;-1.14;100.00;99853.91;5032539;28;20182;-65
2024/01/14 09:07:07;;;;;;;15.97;9.20;;;;;;;-1.06;100.00;99855.50;5031569;28;20185;-65
2024/01/14 09:09:32;;;;;;;15.70;9.70;;;;;;;-1.03;100.00;99851.25;5032196;28;20186;-68
2024/01/14 09:11:57;;;;;;;17.90;9.87;;;;;;;-1.02;100.00;99845.38;5051877;28;20221;-64
2024/01/14 09:14:23;;;;;;;15.13;9.13;;;;;;;-1.05;100.00;99854.66;5033891;28;20186;-63
2024/01/14 09:16:49;;;;;;;15.00;8.27;;;;;;;-0.91;100.00;99851.97;5031568;28;20188;-63
2024/01/14 09:19:14;;;;;;;13.17;9.13;;;;;;;-0.91;100.00;99844.41;5031065;28;20182;-70
2024/01/14 09:21:39;;;;;;;15.63;9.20;;;;;;;-0.76;100.00;99844.22;5036456;28;20265;-68
2024/01/14 09:24:05;;;;;;;16.37;8.13;;;;;;;-0.77;100.00;99837.50;5034118;28;20266;-68
2024/01/14 09:26:31;;;;;;;13.73;8.57;;;;;;;-0.69;100.00;99842.47;5030651;28;20265;-67
2024/01/14 09:28:56;;;;;;;15.27;8.43;;;;;;;-0.61;100.00;99834.78;5031903;28;20179;-66
2024/01/14 09:31:21;;;;;;;18.70;9.50;;;;;;;-0.51;100.00;99836.31;5041580;28;20222;-69
2024/01/14 09:33:47;;;;;;;14.57;8.23;;;;;;;-0.57;100.00;99841.44;5043262;28;20195;-67
2024/01/14 09:36:12;;;;;;;14.57;8.90;;;;;;;-0.36;100.00;99841.19;5031894;28;20178;-67
2024/01/14 09:38:37;;;;;;;14.40;7.97;;;;;;;-0.20;100.00;99834.22;5031891;28;20298;-66
2024/01/14 09:41:46;;;;;;;11.47;7.57;;;;;;;-0.02;100.00;99843.22;5031384;28;20243;-66
2024/01/14 09:44:18;;;;;;;16.00;8.20;;;;;;;0.18;100.00;99846.31;5027366;28;20254;-67
2024/01/14 09:46:44;;;;;;;15.07;8.67;;;;;;;0.01;100.00;99846.56;5029994;28;20571;-66
2024/01/14 09:49:12;;;;;;;11.67;7.40;;;;;;;0.07;100.00;99842.22;5034458;28;20175;-66
2024/01/14 09:51:39;;;;;;;13.73;8.53;;;;;;;0.06;100.00;99844.78;5035265;28;20232;-67
2024/01/14 09:54:04;;;;;;;15.53;9.63;;;;;;;0.17;100.00;99842.94;5033300;28;20214;-66
2024/01/14 09:56:32;;;;;;;15.57;8.80;;;;;;;0.24;100.00;99834.38;5030001;28;20186;-67
2024/01/14 09:58:58;;;;;;;12.83;7.77;;;;;;;0.38;100.00;99845.97;5029849;28;20632;-66
2024/01/14 10:01:30;;;;;;;15.97;9.07;;;;;;;0.41;100.00;99849.28;5033572;28;20301;-67
2024/01/14 10:03:58;;;;;;;14.30;8.93;;;;;;;0.44;100.00;99838.28;5034255;28;20183;-67
2024/01/14 10:06:24;;;;;;;13.67;9.33;;;;;;;0.38;100.00;99841.75;5030049;28;20177;-67
2024/01/14 10:08:49;;;;;;;16.17;9.57;;;;;;;0.24;100.00;99839.44;5030813;28;20661;-67
2024/01/14 10:11:14;;;;;;;15.10;8.40;;;;;;;0.10;100.00;99831.22;5040036;28;20229;-66
2024/01/14 10:13:40;;;;;;;15.63;8.80;;;;;;;-0.15;100.00;99818.13;5043974;28;20211;-67
2024/01/14 10:16:05;;;;;;;17.20;9.60;;;;;;;-0.03;100.00;99816.25;5031555;28;20188;-66
2024/01/14 10:18:30;;;;;;;15.57;8.87;;;;;;;0.17;100.00;99822.69;5031155;28;20628;-66
2024/01/14 10:20:56;;;;;;;15.17;8.70;;;;;;;0.43;100.00;99813.84;5034030;28;20334;-67
2024/01/14 10:23:24;;;;;;;18.10;9.40;;;;;;;0.47;100.00;99816.28;5040692;28;20197;-67
2024/01/14 10:25:52;;;;;;;16.43;8.80;;;;;;;0.62;100.00;99802.53;5033793;28;20189;-66
2024/01/14 10:28:17;;;;;;;17.87;8.77;;;;;;;0.66;100.00;99804.97;5067181;28;20200;-67
2024/01/14 10:30:43;;;;;;;14.77;9.67;;;;;;;0.89;100.00;99796.97;5035223;28;20310;-67
2024/01/14 10:33:09;;;;;;;18.13;9.90;;;;;;;0.58;100.00;99800.91;5044365;28;20307;-67
2024/01/14 10:35:34;;;;;;;15.93;9.87;;;;;;;0.48;100.00;99799.41;5033732;28;20664;-67
2024/01/14 10:38:01;;;;;;;16.67;9.13;;;;;;;0.41;100.00;99788.56;5035122;28;20208;-66
2024/01/14 10:40:26;;;;;;;17.77;9.73;;;;;;;0.41;100.00;99785.19;5031010;28;20239;-67
2024/01/14 10:42:52;;;;;;;17.87;9.40;;;;;;;0.47;100.00;99783.38;5060350;28;20194;-68
2024/01/14 10:45:18;;;;;;;18.03;11.00;;;;;;;0.57;100.00;99780.69;5033325;28;20290;-67
2024/01/14 10:47:47;;;;;;;20.67;10.67;;;;;;;0.67;100.00;99769.53;5033287;28;20185;-67
2024/01/14 10:50:17;;;;;;;17.03;10.13;;;;;;;0.83;100.00;99770.03;5030694;28;20185;-68
2024/01/14 10:52:54;;;;;;;15.97;9.80;;;;;;;0.90;100.00;99771.59;5061582;28;20279;-67
2024/01/14 10:55:42;;;;;;;16.30;9.40;;;;;;;0.84;100.00;99771.72;5034835;28;20189;-67
2024/01/14 10:58:24;;;;;;;18.67;10.03;;;;;;;1.16;100.00;99770.22;5066687;28;20613;-67
2024/01/14 11:00:53;;;;;;;17.30;10.83;;;;;;;1.35;100.00;99763.06;5033145;28;20226;-68
2024/01/14 11:03:18;;;;;;;18.30;10.17;;;;;;;1.27;100.00;99765.75;5042259;28;20190;-67